Time;durP1;ratioP1;P1;durP2;ratioP2;P2;SDS_P1;SDS_P2;PMS_P1;PMS_P2;Temp;Humidity;BMP_temperature;BMP_pressure;BME280_temperature;BME280_humidity;BME280_pressure;Samples;Min_cycle;Max_cycle;Signal;HPM_P1;HPM_P2
2022/06/04 00:01:51;;;;;;;2.65;1.77;;;;;;;19.35;39.19;101772.78;4974658;28;124468;-59
2022/06/04 00:04:18;;;;;;;2.70;1.50;;;;;;;19.33;39.11;101779.22;4972601;28;124698;-59
2022/06/04 00:06:46;;;;;;;3.05;1.38;;;;;;;19.28;39.22;101786.72;4973675;28;109323;-58
2022/06/04 00:09:15;;;;;;;1.98;1.50;;;;;;;19.23;39.28;101785.22;4973353;28;109172;-59
2022/06/04 00:17:17;;;;;;;6.85;1.73;;;;;;;19.05;39.34;101779.22;4970963;28;109009;-58
2022/06/04 00:19:45;;;;;;;2.15;1.50;;;;;;;19.00;39.52;101783.16;4974201;28;109272;-59
2022/06/04 00:22:13;;;;;;;2.80;1.40;;;;;;;18.96;39.52;101770.91;4971852;28;124026;-59
2022/06/04 00:24:42;;;;;;;4.93;1.85;;;;;;;18.91;39.77;101767.66;4962622;28;123978;-59
2022/06/04 00:27:16;;;;;;;2.58;1.48;;;;;;;18.88;39.72;101770.56;4961651;28;109219;-59
2022/06/04 00:29:43;;;;;;;2.17;1.48;;;;;;;18.85;39.70;101764.44;4971540;28;108929;-59
2022/06/04 00:32:12;;;;;;;2.00;1.50;;;;;;;18.81;39.91;101768.25;4968186;28;124053;-59
2022/06/04 00:34:39;;;;;;;2.65;1.60;;;;;;;18.78;39.83;101779.19;4979827;28;124583;-59
2022/06/04 00:37:06;;;;;;;3.22;1.58;;;;;;;18.74;40.00;101772.28;4961473;28;109611;-59
2022/06/04 00:39:33;;;;;;;3.55;1.55;;;;;;;18.71;40.03;101766.25;4967705;28;109436;-59
2022/06/04 00:42:10;;;;;;;3.03;1.48;;;;;;;18.68;40.11;101761.94;4972670;28;124043;-59
2022/06/04 00:45:04;;;;;;;4.05;1.52;;;;;;;18.65;40.13;101762.16;4972921;28;123877;-59
2022/06/04 00:47:31;;;;;;;2.00;1.50;;;;;;;18.63;40.05;101769.44;4973943;28;110339;-59
2022/06/04 00:49:58;;;;;;;3.42;1.60;;;;;;;18.58;39.97;101766.19;4959983;28;110531;-60
2022/06/04 00:52:26;;;;;;;2.83;1.50;;;;;;;18.55;40.24;101767.22;4974917;28;124143;-59
2022/06/04 00:54:56;;;;;;;4.50;2.08;;;;;;;18.52;40.37;101778.16;4972811;28;123858;-59
2022/06/04 00:57:43;;;;;;;2.92;1.50;;;;;;;18.48;40.38;101777.50;4974058;28;109239;-60
2022/06/04 01:00:17;;;;;;;3.60;1.75;;;;;;;18.46;40.25;101767.84;4974504;28;108965;-59
2022/06/04 01:03:21;;;;;;;3.10;1.60;;;;;;;18.43;40.30;101760.81;4970866;28;124081;-59
2022/06/04 01:05:54;;;;;;;2.63;1.58;;;;;;;18.41;40.36;101776.16;4955416;28;124467;-60
2022/06/04 01:08:47;;;;;;;2.40;1.67;;;;;;;18.37;40.38;101790.72;4966696;28;109495;-59
2022/06/04 01:12:09;;;;;;;5.03;1.95;;;;;;;18.33;40.57;101794.56;4972089;28;109240;-59
2022/06/04 01:14:51;;;;;;;2.83;1.60;;;;;;;18.29;40.46;101801.09;4963597;28;124029;-59
2022/06/04 01:17:45;;;;;;;2.25;1.65;;;;;;;18.24;40.53;101805.88;4964976;28;124720;-59
2022/06/04 01:20:24;;;;;;;3.95;1.67;;;;;;;18.22;40.75;101815.81;4973281;28;109528;-59
2022/06/04 01:23:00;;;;;;;2.67;1.60;;;;;;;18.21;40.85;101838.22;4959866;28;108683;-59
2022/06/04 01:25:49;;;;;;;2.25;1.80;;;;;;;18.17;40.90;101837.53;4960080;28;124041;-60
2022/06/04 01:28:17;;;;;;;3.03;1.70;;;;;;;18.15;40.82;101834.09;4957703;28;123834;-59
2022/06/04 01:30:51;;;;;;;2.92;1.77;;;;;;;18.11;41.06;101826.34;4971729;28;109496;-59
2022/06/04 01:33:34;;;;;;;4.43;2.05;;;;;;;18.09;41.13;101831.81;4970206;28;108890;-59
2022/06/04 01:36:05;;;;;;;2.40;1.98;;;;;;;18.05;41.24;101831.13;4971587;28;124899;-59
2022/06/04 01:38:47;;;;;;;2.40;1.65;;;;;;;18.02;41.27;101833.13;4969384;28;124171;-59
2022/06/04 01:41:43;;;;;;;3.65;2.08;;;;;;;17.96;41.12;101834.34;4968015;28;110292;-58
2022/06/04 01:44:13;;;;;;;;;;;;;;;17.90;40.70;101835.59;4973641;28;109852;-59
2022/06/04 01:46:48;;;;;;;3.42;2.05;;;;;;;17.90;41.19;101840.09;4971637;28;125306;-59
2022/06/04 01:49:23;;;;;;;3.10;1.85;;;;;;;17.85;41.69;101826.94;4970431;28;123948;-59
2022/06/04 01:51:58;;;;;;;3.10;2.00;;;;;;;17.84;41.40;101840.44;4971521;28;109446;-59
2022/06/04 01:54:32;;;;;;;3.40;1.90;;;;;;;17.83;41.61;101844.06;4962156;28;109036;-58
2022/06/04 01:57:08;;;;;;;2.33;1.90;;;;;;;17.80;41.62;101849.59;4956647;28;124666;-59
2022/06/04 01:59:39;;;;;;;3.03;2.00;;;;;;;17.77;41.71;101844.44;4972117;28;124438;-59
2022/06/04 02:02:13;;;;;;;3.38;2.10;;;;;;;17.74;41.90;101839.25;4971091;28;109195;-60
2022/06/04 02:04:47;;;;;;;4.72;2.35;;;;;;;17.70;41.84;101847.44;4971288;28;108872;-59
2022/06/04 02:07:32;;;;;;;4.18;2.00;;;;;;;17.66;42.14;101843.22;4955880;28;123966;-59
2022/06/04 02:10:09;;;;;;;3.17;2.20;;;;;;;17.62;42.21;101839.00;4972650;28;124154;-60
2022/06/04 02:12:38;;;;;;;4.18;2.33;;;;;;;17.58;42.30;101840.16;4958739;28;108963;-59
2022/06/04 02:15:09;;;;;;;4.65;2.50;;;;;;;17.56;42.37;101842.06;4971370;28;109289;-58
2022/06/04 02:17:40;;;;;;;3.92;2.45;;;;;;;17.54;42.46;101838.63;4958435;28;123732;-59
2022/06/04 02:20:09;;;;;;;4.43;2.55;;;;;;;17.53;42.69;101820.81;4960554;28;124075;-59
2022/06/04 02:22:36;;;;;;;5.28;2.70;;;;;;;17.52;42.63;101824.44;4953303;28;108559;-59
2022/06/04 02:25:08;;;;;;;2.95;2.13;;;;;;;17.50;42.77;101826.34;4952389;28;109639;-59
2022/06/04 02:27:36;;;;;;;3.88;2.50;;;;;;;17.47;42.77;101821.16;4966586;28;124136;-59
2022/06/04 02:30:04;;;;;;;4.40;2.40;;;;;;;17.45;42.88;101817.72;4953796;28;124194;-59
2022/06/04 02:33:03;;;;;;;4.32;2.50;;;;;;;17.42;43.08;101818.78;4966203;28;110468;-59
2022/06/04 02:35:48;;;;;;;4.15;2.58;;;;;;;17.41;42.96;101832.25;4966563;28;109600;-59
2022/06/04 02:38:24;;;;;;;5.30;2.78;;;;;;;17.38;43.03;101832.41;4958520;28;123901;-59
2022/06/04 02:41:27;;;;;;;3.42;2.45;;;;;;;17.35;43.24;101832.59;4972667;28;123957;-59
2022/06/04 02:44:07;;;;;;;4.82;2.70;;;;;;;17.32;43.26;101834.47;4975622;28;109423;-59
2022/06/04 02:46:41;;;;;;;4.63;2.83;;;;;;;17.30;43.47;101836.38;4958187;28;109159;-59
2022/06/04 02:49:53;;;;;;;7.72;3.10;;;;;;;17.26;43.34;101829.50;4956136;28;124637;-59
2022/06/04 02:52:23;;;;;;;5.13;3.00;;;;;;;17.23;43.60;101818.94;4969012;28;124005;-59
2022/06/04 02:55:11;;;;;;;4.63;2.60;;;;;;;17.19;43.39;101809.38;4977407;28;108482;-59
2022/06/04 02:57:41;;;;;;;5.47;3.08;;;;;;;17.19;43.85;101812.03;4975010;28;108657;-59
2022/06/04 03:00:12;;;;;;;6.60;3.30;;;;;;;17.15;43.88;101805.16;4973565;28;124040;-59
2022/06/04 03:02:39;;;;;;;5.07;3.08;;;;;;;17.14;43.98;101806.13;4973775;28;123919;-59
2022/06/04 03:05:19;;;;;;;6.65;2.92;;;;;;;17.11;44.27;101792.91;4972897;28;109168;-59
2022/06/04 03:07:49;;;;;;;5.05;3.05;;;;;;;17.09;44.26;101794.81;4973235;28;109219;-59
2022/06/04 03:10:24;;;;;;;4.70;2.90;;;;;;;17.06;44.40;101784.25;4974577;28;124270;-60
2022/06/04 03:13:09;;;;;;;6.53;3.33;;;;;;;17.05;44.30;101787.91;4974653;28;123820;-59
2022/06/04 03:15:36;;;;;;;5.43;3.55;;;;;;;17.04;44.41;101788.84;4962201;28;108124;-59
2022/06/04 03:18:03;;;;;;;5.25;3.25;;;;;;;17.03;44.51;101792.50;4972675;28;109162;-59
2022/06/04 03:20:30;;;;;;;5.10;3.10;;;;;;;17.01;44.77;101792.56;4974054;28;123948;-59
2022/06/04 03:22:57;;;;;;;6.43;3.50;;;;;;;17.00;44.81;101800.69;4974628;28;123839;-61
2022/06/04 03:25:24;;;;;;;6.82;3.45;;;;;;;17.00;45.05;101795.31;4961540;28;110672;-59
2022/06/04 03:27:53;;;;;;;4.55;3.33;;;;;;;16.98;44.88;101791.88;4975301;28;110910;-59
2022/06/04 03:30:25;;;;;;;4.47;3.42;;;;;;;16.95;45.13;101789.38;4974938;28;124253;-59
2022/06/04 03:32:53;;;;;;;6.65;3.50;;;;;;;16.91;45.02;101797.59;4962384;28;122790;-59
2022/06/04 03:35:21;;;;;;;6.85;3.25;;;;;;;16.90;45.13;101795.84;4976242;28;108418;-59
2022/06/04 03:37:50;;;;;;;6.28;3.70;;;;;;;16.86;45.29;101791.63;4975501;28;109114;-59
2022/06/04 03:40:17;;;;;;;8.82;3.88;;;;;;;16.86;45.28;101794.28;4964979;28;124044;-59
2022/06/04 03:42:44;;;;;;;6.05;4.03;;;;;;;16.85;45.48;101803.25;4972487;28;123871;-59
2022/06/04 03:45:13;;;;;;;6.75;4.00;;;;;;;16.83;45.55;101801.63;4975254;28;108821;-59
2022/06/04 03:47:42;;;;;;;5.65;3.80;;;;;;;16.82;45.77;101803.44;4958840;28;108746;-59
2022/06/04 03:50:14;;;;;;;7.78;3.90;;;;;;;16.83;45.72;101809.66;4955879;28;124635;-60
2022/06/04 03:52:42;;;;;;;6.68;4.15;;;;;;;16.82;45.98;101814.16;4969939;28;123518;-60
2022/06/04 03:55:11;;;;;;;7.15;3.92;;;;;;;16.81;45.83;101827.56;4973488;28;109046;-60
2022/06/04 03:57:41;;;;;;;5.68;4.03;;;;;;;16.80;45.97;101826.72;4975892;28;108948;-59
2022/06/04 04:00:32;;;;;;;8.20;3.90;;;;;;;16.78;46.20;101823.25;4956607;28;124425;-59
2022/06/04 04:03:16;;;;;;;6.05;3.90;;;;;;;16.78;45.93;101827.72;4971477;28;124799;-59
2022/06/04 04:05:50;;;;;;;7.25;3.80;;;;;;;16.77;46.00;101815.31;4966525;28;109150;-60
2022/06/04 04:08:19;;;;;;;10.18;3.80;;;;;;;16.75;46.17;101823.44;4970316;28;110092;-59
2022/06/04 04:10:47;;;;;;;5.82;3.65;;;;;;;16.74;46.30;101827.03;4974413;28;123714;-60
2022/06/04 04:13:16;;;;;;;6.20;3.80;;;;;;;16.71;46.50;101828.09;4973070;28;123922;-59
2022/06/04 04:15:45;;;;;;;6.78;3.70;;;;;;;16.73;46.55;101830.69;4972566;28;110365;-60
2022/06/04 04:18:13;;;;;;;6.55;4.18;;;;;;;16.74;46.58;101822.56;4960907;28;110244;-59
2022/06/04 04:20:43;;;;;;;6.82;3.58;;;;;;;16.73;46.52;101826.19;4966023;28;124752;-60
2022/06/04 04:23:10;;;;;;;6.90;4.20;;;;;;;16.72;46.51;101828.94;4981836;28;124349;-59
2022/06/04 04:25:37;;;;;;;7.00;3.80;;;;;;;16.70;46.67;101821.00;4968587;28;109097;-60
2022/06/04 04:28:06;;;;;;;5.80;3.80;;;;;;;16.68;46.82;101816.69;4955363;28;109306;-60
2022/06/04 04:30:35;;;;;;;8.43;4.25;;;;;;;16.67;46.97;101822.97;4973881;28;124620;-60
2022/06/04 04:33:04;;;;;;;6.63;3.70;;;;;;;16.68;47.13;101827.38;4973090;28;122709;-59
2022/06/04 04:35:34;;;;;;;7.22;3.92;;;;;;;16.68;47.13;101827.38;4974275;28;108311;-59
2022/06/04 04:38:02;;;;;;;7.93;4.32;;;;;;;16.68;47.01;101835.41;4963119;28;109505;-59
2022/06/04 04:40:31;;;;;;;7.43;4.07;;;;;;;16.67;47.34;101834.56;4971263;28;127054;-59
2022/06/04 04:42:59;;;;;;;6.50;3.80;;;;;;;16.67;47.34;101837.22;4967997;28;123554;-60
2022/06/04 04:45:27;;;;;;;7.00;4.18;;;;;;;16.67;47.50;101842.59;4966113;28;109057;-60
2022/06/04 04:47:56;;;;;;;7.15;3.97;;;;;;;16.67;47.49;101836.34;4957988;28;109528;-59
2022/06/04 04:50:37;;;;;;;7.88;3.70;;;;;;;16.67;47.63;101841.69;4974733;28;124004;-60
2022/06/04 04:53:09;;;;;;;10.25;4.00;;;;;;;16.70;47.69;101844.22;4972076;28;124543;-60
2022/06/04 04:55:36;;;;;;;6.68;3.88;;;;;;;16.71;47.54;101843.28;4974893;28;109251;-60
2022/06/04 04:58:04;;;;;;;7.93;4.22;;;;;;;16.73;47.64;101846.72;4971143;28;108843;-60
2022/06/04 05:00:32;;;;;;;5.25;3.78;;;;;;;16.74;47.71;101843.09;4952594;28;123973;-60
2022/06/04 05:03:00;;;;;;;7.20;4.20;;;;;;;16.74;47.87;101843.09;4966972;28;123743;-60
2022/06/04 05:05:28;;;;;;;6.63;3.97;;;;;;;16.74;47.67;101848.44;4973677;28;110887;-60
2022/06/04 05:07:56;;;;;;;8.13;4.07;;;;;;;16.76;48.02;101851.88;4972623;28;109652;-61
2022/06/04 05:10:24;;;;;;;6.47;4.05;;;;;;;16.78;47.94;101859.84;4974179;28;124443;-59
2022/06/04 05:12:53;;;;;;;5.55;3.83;;;;;;;16.82;47.96;101862.31;4963716;28;123267;-60
2022/06/04 05:15:22;;;;;;;6.90;3.75;;;;;;;16.85;47.94;101862.13;4966575;28;109404;-60
2022/06/04 05:17:49;;;;;;;7.57;4.32;;;;;;;16.89;47.98;101868.19;4962840;28;109083;-58
2022/06/04 05:20:17;;;;;;;8.15;4.53;;;;;;;16.90;48.01;101860.06;4972856;28;124489;-58
2022/06/04 05:22:44;;;;;;;7.43;4.28;;;;;;;16.91;48.10;101868.94;4952245;28;123838;-58
2022/06/04 05:25:12;;;;;;;6.93;4.60;;;;;;;16.91;48.11;101872.50;4952759;28;109165;-58
2022/06/04 05:27:39;;;;;;;7.63;4.07;;;;;;;16.95;48.19;101866.97;4958523;28;109130;-58
2022/06/04 05:30:07;;;;;;;7.78;4.40;;;;;;;16.96;48.26;101868.72;4973561;28;124794;-58
2022/06/04 05:32:34;;;;;;;6.93;4.00;;;;;;;16.99;48.23;101868.53;4971473;28;123936;-58
2022/06/04 05:35:02;;;;;;;5.22;3.88;;;;;;;17.00;48.22;101870.25;4974036;28;109159;-58
2022/06/04 05:37:29;;;;;;;6.45;4.22;;;;;;;17.02;48.34;101879.06;4972943;28;109368;-58
2022/06/04 05:40:04;;;;;;;6.93;3.90;;;;;;;17.05;48.35;101876.22;4962130;28;123963;-58
2022/06/04 05:42:32;;;;;;;7.15;4.38;;;;;;;17.07;48.17;101882.38;4971174;28;123774;-59
2022/06/04 05:45:00;;;;;;;7.70;4.30;;;;;;;17.10;48.33;101882.16;4973769;28;109756;-58
2022/06/04 05:47:28;;;;;;;9.35;5.18;;;;;;;17.13;48.55;101890.03;4958205;28;109210;-58
2022/06/04 05:49:55;;;;;;;6.38;4.00;;;;;;;17.17;48.06;101872.84;4972940;28;124372;-58
2022/06/04 05:52:23;;;;;;;7.45;4.18;;;;;;;17.20;48.02;101878.03;4970046;28;124025;-58
2022/06/04 05:54:50;;;;;;;7.30;4.70;;;;;;;17.23;48.58;101883.19;4958034;28;109946;-58
2022/06/04 05:57:18;;;;;;;6.57;4.28;;;;;;;17.25;48.46;101886.69;4973210;28;110109;-58
2022/06/04 05:59:45;;;;;;;7.30;4.25;;;;;;;17.26;48.43;101883.03;4972057;28;124770;-58
2022/06/04 06:02:12;;;;;;;9.00;4.47;;;;;;;17.29;48.64;101885.56;4970638;28;124300;-58
2022/06/04 06:04:39;;;;;;;9.43;4.72;;;;;;;17.35;48.30;101896.84;4974057;28;109180;-58
2022/06/04 06:07:07;;;;;;;6.75;4.55;;;;;;;17.36;48.46;101882.53;4971619;28;109535;-58
2022/06/04 06:09:34;;;;;;;8.93;4.93;;;;;;;17.37;48.42;101889.63;4971738;28;124448;-57
2022/06/04 06:12:01;;;;;;;7.28;4.50;;;;;;;17.40;48.52;101889.44;4956536;28;123801;-59
2022/06/04 06:14:28;;;;;;;7.35;4.57;;;;;;;17.43;48.25;101895.47;4973536;28;109838;-58
2022/06/04 06:16:56;;;;;;;9.80;5.10;;;;;;;17.46;48.49;101895.31;4973523;28;109098;-58
2022/06/04 06:19:23;;;;;;;7.68;4.57;;;;;;;17.50;48.40;101896.00;4971054;28;124584;-57
2022/06/04 06:21:51;;;;;;;7.70;4.82;;;;;;;17.55;48.50;101898.41;4969298;28;123928;-57
2022/06/04 06:24:21;;;;;;;7.53;4.30;;;;;;;17.57;48.55;101902.69;4972409;28;109165;-57
2022/06/04 06:26:53;;;;;;;8.38;4.55;;;;;;;17.61;48.59;101904.28;4973128;28;107978;-57
2022/06/04 06:29:23;;;;;;;8.02;4.90;;;;;;;17.68;48.40;101910.13;4972643;28;124261;-58
2022/06/04 06:31:51;;;;;;;8.93;4.80;;;;;;;17.74;48.40;101916.94;4970751;28;123946;-57
2022/06/04 06:34:18;;;;;;;6.75;4.40;;;;;;;17.77;48.42;101911.44;4971206;28;109692;-57
2022/06/04 06:36:46;;;;;;;8.05;4.50;;;;;;;17.81;48.09;101910.28;4972808;28;108961;-58
2022/06/04 06:39:14;;;;;;;7.97;4.97;;;;;;;17.85;48.23;101911.84;4967186;28;126472;-57
2022/06/04 06:41:41;;;;;;;9.30;4.75;;;;;;;17.89;48.22;101913.41;4958797;28;124219;-58
2022/06/04 06:44:12;;;;;;;7.75;4.90;;;;;;;17.95;48.29;101912.19;4972807;28;110268;-58
2022/06/04 06:46:45;;;;;;;6.43;4.35;;;;;;;17.99;48.18;101914.59;4957558;28;109721;-58
2022/06/04 06:49:19;;;;;;;8.60;4.72;;;;;;;18.04;48.29;101922.34;4972689;28;124149;-57
2022/06/04 06:51:50;;;;;;;7.30;4.75;;;;;;;18.09;48.36;101931.84;4966929;28;123930;-57
2022/06/04 06:54:20;;;;;;;7.93;5.32;;;;;;;18.14;48.24;101938.75;4954059;28;109551;-57
2022/06/04 06:56:49;;;;;;;9.02;4.53;;;;;;;18.17;48.20;101928.72;4956297;28;109068;-57
2022/06/04 06:59:20;;;;;;;7.35;4.57;;;;;;;18.20;48.01;101928.53;4963793;28;123912;-57
2022/06/04 07:01:51;;;;;;;8.95;5.07;;;;;;;18.22;48.01;101926.63;4964838;28;124583;-57
2022/06/04 07:04:21;;;;;;;7.55;4.65;;;;;;;18.27;48.14;101931.69;4959396;28;109336;-57
2022/06/04 07:06:51;;;;;;;7.45;4.78;;;;;;;18.32;48.08;101931.44;4957741;28;108148;-57
2022/06/04 07:09:24;;;;;;;8.32;4.82;;;;;;;18.35;48.08;101921.38;4942718;28;122926;-57
2022/06/04 07:11:53;;;;;;;7.00;4.22;;;;;;;18.37;47.87;101922.16;4973232;28;123807;-58
2022/06/04 07:14:22;;;;;;;7.93;4.95;;;;;;;18.40;47.77;101919.31;4970602;28;109009;-57
2022/06/04 07:16:51;;;;;;;9.88;5.07;;;;;;;18.43;47.88;101924.47;4964101;28;109275;-57
2022/06/04 07:19:21;;;;;;;7.13;4.75;;;;;;;18.48;47.80;101921.50;4969740;28;124770;-57
2022/06/04 07:21:50;;;;;;;10.02;4.95;;;;;;;18.54;47.77;101925.63;4969745;28;124003;-57
2022/06/04 07:24:17;;;;;;;7.05;4.70;;;;;;;18.58;47.80;101921.81;4967297;28;109476;-57
2022/06/04 07:26:45;;;;;;;7.93;4.65;;;;;;;18.64;47.69;101916.06;4973412;28;109673;-58
2022/06/04 07:29:13;;;;;;;7.20;4.25;;;;;;;18.69;47.70;101913.94;4972461;28;124525;-58
2022/06/04 07:31:40;;;;;;;8.27;4.72;;;;;;;18.73;47.83;101912.81;4970601;28;124339;-57
2022/06/04 07:34:08;;;;;;;8.80;5.00;;;;;;;18.80;47.55;101911.50;4972371;28;110002;-57
2022/06/04 07:36:43;;;;;;;7.25;4.57;;;;;;;18.88;47.70;101920.91;4973325;28;110558;-57
2022/06/04 07:39:14;;;;;;;9.00;5.00;;;;;;;18.92;47.57;101922.41;4971243;28;124812;-58
2022/06/04 07:41:44;;;;;;;8.05;4.43;;;;;;;18.99;47.61;101934.50;4970720;28;124233;-58
2022/06/04 07:44:14;;;;;;;9.95;5.20;;;;;;;19.03;47.44;101928.81;4967731;28;109994;-58
2022/06/04 07:46:44;;;;;;;8.30;4.65;;;;;;;19.06;47.23;101933.13;4973219;28;108965;-58
2022/06/04 07:49:13;;;;;;;6.55;4.50;;;;;;;19.07;47.38;101940.25;4971624;28;124646;-58
2022/06/04 07:51:42;;;;;;;7.75;5.00;;;;;;;19.12;47.49;101938.13;4974551;28;124623;-58
2022/06/04 07:54:09;;;;;;;8.45;4.97;;;;;;;19.21;47.29;101942.03;4974848;28;108996;-58
2022/06/04 07:56:38;;;;;;;9.32;5.20;;;;;;;19.30;47.28;101935.22;4974717;28;108499;-57
2022/06/04 07:59:07;;;;;;;8.05;5.13;;;;;;;19.34;47.28;101928.69;4973974;28;124163;-57
2022/06/04 08:01:36;;;;;;;10.15;5.13;;;;;;;19.40;47.11;101930.97;4971771;28;122767;-58
2022/06/04 08:04:04;;;;;;;7.43;4.85;;;;;;;19.46;47.00;101935.97;4972697;28;109560;-57
2022/06/04 08:06:32;;;;;;;9.85;5.53;;;;;;;19.53;46.76;101937.25;4972973;28;108453;-58
2022/06/04 08:09:00;;;;;;;7.40;4.65;;;;;;;19.56;46.84;101939.75;4972974;28;124967;-57
2022/06/04 08:11:31;;;;;;;7.30;4.50;;;;;;;19.60;46.71;101949.34;4975516;28;124500;-59
2022/06/04 08:14:28;;;;;;;9.18;5.28;;;;;;;19.64;46.74;101934.72;4973092;28;109042;-58
2022/06/04 08:17:00;;;;;;;9.05;5.03;;;;;;;19.68;46.83;101927.31;4969790;28;109294;-57
2022/06/04 08:19:30;;;;;;;7.03;4.75;;;;;;;19.75;46.56;101930.50;4960403;28;125015;-57
2022/06/04 08:21:57;;;;;;;10.20;4.72;;;;;;;19.80;46.74;101934.63;4970004;28;124320;-58
2022/06/04 08:24:25;;;;;;;7.00;4.70;;;;;;;19.88;46.78;101931.41;4970650;28;110983;-57
2022/06/04 08:26:58;;;;;;;10.10;4.85;;;;;;;19.95;46.79;101932.72;4971863;28;109784;-58
2022/06/04 08:29:30;;;;;;;6.28;4.57;;;;;;;20.02;46.49;101934.03;4970149;28;124020;-58
2022/06/04 08:31:59;;;;;;;7.75;4.53;;;;;;;20.09;46.39;101936.31;4972616;28;124179;-58
2022/06/04 08:34:27;;;;;;;9.02;5.05;;;;;;;20.16;46.10;101932.25;4967897;28;109204;-57
2022/06/04 08:36:54;;;;;;;8.95;5.18;;;;;;;20.21;46.10;101927.38;4970316;28;108903;-58
2022/06/04 08:39:21;;;;;;;6.65;4.60;;;;;;;20.27;46.14;101929.69;4967237;28;124086;-57
2022/06/04 08:41:54;;;;;;;7.88;4.57;;;;;;;20.34;46.03;101939.06;4973404;28;123716;-57
2022/06/04 08:44:33;;;;;;;7.72;4.95;;;;;;;20.42;46.17;101942.06;4969526;28;109013;-57
2022/06/04 08:47:15;;;;;;;6.95;4.70;;;;;;;20.52;46.00;101930.66;4974132;28;109254;-57
2022/06/04 08:49:47;;;;;;;7.75;4.75;;;;;;;20.59;46.01;101926.59;4971144;28;123029;-58
2022/06/04 08:52:35;;;;;;;8.48;5.30;;;;;;;20.66;45.71;101933.25;4974448;28;124069;-58
2022/06/04 08:58:17;;;;;;;8.43;5.13;;;;;;;20.75;45.32;101921.84;4967818;28;108777;-58
2022/06/04 09:00:57;;;;;;;8.40;5.20;;;;;;;20.82;45.49;101930.38;4971975;28;124089;-58
2022/06/04 09:03:36;;;;;;;8.52;4.95;;;;;;;20.90;45.46;101919.03;4972230;28;123936;-58
2022/06/04 09:06:22;;;;;;;7.68;4.72;;;;;;;20.99;45.20;101918.38;4965525;28;109182;-57
2022/06/04 09:08:59;;;;;;;7.50;4.82;;;;;;;21.05;45.22;101922.47;4967182;28;108721;-57
2022/06/04 09:11:45;;;;;;;7.88;4.80;;;;;;;21.14;45.34;101922.66;4973325;28;123106;-57
2022/06/04 09:14:18;;;;;;;7.32;4.97;;;;;;;21.27;45.20;101927.16;4972873;28;122877;-57
2022/06/04 09:16:53;;;;;;;7.00;4.78;;;;;;;21.38;45.33;101932.63;4972326;28;110571;-57
2022/06/04 09:19:25;;;;;;;7.05;4.72;;;;;;;21.54;44.99;101930.53;4965055;28;110017;-57
2022/06/04 09:21:53;;;;;;;8.63;5.18;;;;;;;21.70;44.97;101940.16;4970395;28;124751;-57
2022/06/04 09:24:20;;;;;;;9.15;5.20;;;;;;;21.82;44.57;101950.06;4969901;28;124018;-57
2022/06/04 09:26:55;;;;;;;7.47;5.18;;;;;;;21.92;44.48;101951.06;4970711;28;109097;-57
2022/06/04 09:30:02;;;;;;;7.85;5.22;;;;;;;22.04;44.28;101964.59;4969488;28;109371;-57
2022/06/04 09:32:44;;;;;;;8.38;4.82;;;;;;;22.15;44.07;101956.53;4967965;28;123832;-57
2022/06/04 09:35:17;;;;;;;8.98;4.97;;;;;;;22.28;43.73;101945.72;4971024;28;123800;-57
2022/06/04 09:37:48;;;;;;;6.55;4.95;;;;;;;22.40;43.73;101933.13;4969071;28;109486;-57
2022/06/04 09:40:20;;;;;;;8.57;4.95;;;;;;;22.51;43.38;101930.44;4960045;28;109206;-57
2022/06/04 09:42:48;;;;;;;8.13;5.57;;;;;;;22.62;42.96;101922.34;4966137;28;124605;-57
2022/06/04 09:45:35;;;;;;;7.07;5.18;;;;;;;22.72;42.56;101933.28;4970760;28;123847;-57
2022/06/04 09:48:19;;;;;;;8.50;5.47;;;;;;;22.76;42.47;101926.66;4957222;28;109036;-57
2022/06/04 09:50:53;;;;;;;7.55;4.93;;;;;;;22.84;42.83;101936.84;4973541;28;108829;-57
2022/06/04 09:53:23;;;;;;;7.30;4.82;;;;;;;22.97;42.71;101942.97;4973200;28;124197;-57
2022/06/04 09:55:56;;;;;;;8.05;4.70;;;;;;;23.09;42.88;101936.63;4974426;28;123901;-57
2022/06/04 09:58:33;;;;;;;7.50;5.22;;;;;;;23.24;42.80;101936.34;4971212;28;109160;-57
2022/06/04 10:01:00;;;;;;;7.05;4.95;;;;;;;23.37;42.63;101934.34;4972043;28;109323;-57
2022/06/04 10:03:31;;;;;;;6.25;4.63;;;;;;;23.48;42.71;101937.03;4970942;28;124259;-57
2022/06/04 10:06:03;;;;;;;9.80;5.15;;;;;;;23.60;42.52;101940.59;4971609;28;123976;-58
2022/06/04 10:09:55;;;;;;;7.00;5.03;;;;;;;23.72;42.29;101933.28;4970685;28;109960;-57
2022/06/04 10:11:21;;;;;;;7.13;5.65;;;;;;;23.85;42.09;101933.16;4973078;28;109995;-57
2022/06/04 10:13:52;;;;;;;10.07;4.90;;;;;;;23.95;41.76;101930.53;4956051;28;122831;-59
2022/06/04 10:16:23;;;;;;;6.00;4.70;;;;;;;24.01;41.24;101940.81;4953826;28;123988;-59
2022/06/04 10:19:04;;;;;;;6.60;4.90;;;;;;;24.06;41.41;101946.72;4972647;28;109255;-56
2022/06/04 10:21:36;;;;;;;6.97;5.07;;;;;;;24.09;41.27;101941.03;4961238;28;108957;-56
2022/06/04 10:24:17;;;;;;;6.53;4.90;;;;;;;24.13;41.16;101942.50;4964639;28;124555;-57
2022/06/04 10:27:06;;;;;;;8.40;5.00;;;;;;;24.21;41.25;101949.97;4980214;28;124284;-57
2022/06/04 10:30:04;;;;;;;7.50;4.75;;;;;;;24.29;41.21;101948.28;4952465;28;109667;-57
2022/06/04 10:32:56;;;;;;;8.35;5.10;;;;;;;24.39;41.07;101947.50;4967035;28;110970;-57
2022/06/04 10:35:38;;;;;;;8.30;5.13;;;;;;;24.45;41.14;101941.59;4965567;28;124294;-57
2022/06/04 10:38:05;;;;;;;7.72;4.78;;;;;;;24.51;40.88;101932.91;4970611;28;123795;-58
2022/06/04 10:40:54;;;;;;;6.70;4.72;;;;;;;24.58;41.14;101942.25;4960388;28;108996;-57
2022/06/04 10:44:01;;;;;;;7.90;4.72;;;;;;;24.64;40.79;101936.31;4954164;28;108396;-57
2022/06/04 10:46:41;;;;;;;6.53;5.00;;;;;;;24.71;40.50;101943.88;4970981;28;123210;-57
2022/06/04 10:49:33;;;;;;;7.45;4.82;;;;;;;24.72;40.34;101932.06;4987744;28;122641;-57
2022/06/04 10:52:12;;;;;;;8.82;5.43;;;;;;;24.76;40.28;101936.22;4973268;28;110064;-58
2022/06/04 10:54:55;;;;;;;7.35;5.18;;;;;;;24.79;40.16;101933.22;4971034;28;109295;-57
2022/06/04 10:57:48;;;;;;;10.18;5.28;;;;;;;24.81;40.55;101939.38;4970892;28;124751;-57
2022/06/04 11:00:27;;;;;;;7.38;5.05;;;;;;;24.86;40.05;101934.38;4974090;28;124171;-57
2022/06/04 11:03:06;;;;;;;8.40;5.00;;;;;;;24.85;39.62;101946.25;4973649;28;110216;-58
2022/06/04 11:05:43;;;;;;;6.97;4.45;;;;;;;24.86;39.56;101934.38;4973960;28;109835;-57
2022/06/04 11:08:21;;;;;;;6.28;4.50;;;;;;;24.91;39.78;101942.97;4975176;28;124847;-57
2022/06/04 11:10:55;;;;;;;7.30;4.63;;;;;;;25.00;39.79;101947.59;4967468;28;124720;-57
2022/06/04 11:13:37;;;;;;;7.05;5.10;;;;;;;25.11;39.65;101943.91;4957451;28;109267;-58
2022/06/04 11:16:21;;;;;;;7.43;4.97;;;;;;;25.24;39.74;101943.69;4972852;28;108711;-57
2022/06/04 11:18:57;;;;;;;8.68;4.95;;;;;;;25.35;39.78;101951.72;4972916;28;123862;-57
2022/06/04 11:21:42;;;;;;;6.28;4.43;;;;;;;25.46;39.43;101948.03;4972335;28;123236;-57
2022/06/04 11:24:19;;;;;;;8.27;5.35;;;;;;;25.58;39.02;101937.91;4962506;28;109046;-57
2022/06/04 11:26:54;;;;;;;6.82;5.10;;;;;;;25.63;38.58;101946.50;4973672;28;108917;-57
2022/06/04 11:29:22;;;;;;;6.85;4.85;;;;;;;25.66;38.91;101948.94;4974987;28;124117;-57
2022/06/04 11:32:19;;;;;;;6.72;4.50;;;;;;;25.79;38.98;101944.09;4962460;28;123725;-57
2022/06/04 11:35:04;;;;;;;7.10;4.72;;;;;;;25.94;38.47;101941.84;4965356;28;109436;-57
2022/06/04 11:38:05;;;;;;;6.13;4.47;;;;;;;26.06;38.54;101942.53;4967603;28;108736;-58
2022/06/04 11:40:46;;;;;;;6.10;4.45;;;;;;;26.19;38.36;101956.66;4956088;28;124076;-58
2022/06/04 11:43:16;;;;;;;7.05;5.00;;;;;;;26.31;38.21;101948.38;4955427;28;124568;-57
2022/06/04 11:46:15;;;;;;;6.22;4.47;;;;;;;26.38;37.78;101954.94;4966588;28;109437;-57
2022/06/04 11:49:00;;;;;;;6.35;4.75;;;;;;;26.42;37.22;101945.50;4963592;28;108923;-58
2022/06/04 11:51:43;;;;;;;;;;;;;;;26.38;37.83;101938.63;4969421;28;124564;-57
2022/06/04 11:54:32;;;;;;;6.50;4.40;;;;;;;26.43;38.16;101936.34;4968752;28;124512;-57
2022/06/04 11:57:15;;;;;;;6.15;4.35;;;;;;;26.53;38.49;101929.00;4972303;28;110311;-57